Time;durP1;ratioP1;P1;durP2;ratioP2;P2;SDS_P1;SDS_P2;PMS_P1;PMS_P2;Temp;Humidity;BMP_temperature;BMP_pressure;BME280_temperature;BME280_humidity;BME280_pressure;Samples;Min_cycle;Max_cycle;Signal;HPM_P1;HPM_P2
2022/05/24 00:00:40;;;;;;;5.68;3.63;;;;;;;13.14;100.00;99960.34;4981447;28;20057;-27
2022/05/24 00:03:09;;;;;;;7.25;3.78;;;;;;;13.17;100.00;99956.09;4992874;28;20061;-27
2022/05/24 00:05:37;;;;;;;7.00;3.50;;;;;;;13.16;100.00;99960.03;4991881;28;20109;-28
2022/05/24 00:08:07;;;;;;;7.72;3.60;;;;;;;13.15;100.00;99953.63;4992530;28;20499;-27
2022/05/24 00:10:38;;;;;;;5.72;3.30;;;;;;;13.16;100.00;99955.25;4989926;28;20141;-27
2022/05/24 00:13:08;;;;;;;6.93;3.35;;;;;;;13.15;100.00;99950.81;4988415;28;20042;-27
2022/05/24 00:15:35;;;;;;;8.60;4.38;;;;;;;13.15;100.00;99955.56;4991415;28;20125;-27
2022/05/24 00:18:05;;;;;;;7.80;4.38;;;;;;;13.12;100.00;99954.25;4991892;28;20507;-26
2022/05/24 00:20:38;;;;;;;8.82;4.50;;;;;;;13.12;100.00;99962.66;4991713;28;20468;-28
2022/05/24 00:23:06;;;;;;;6.78;4.00;;;;;;;13.10;100.00;99959.38;4992651;28;20046;-28
2022/05/24 00:25:36;;;;;;;10.57;4.57;;;;;;;13.09;100.00;99944.56;4992354;28;20459;-27
2022/05/24 00:28:06;;;;;;;9.88;4.30;;;;;;;13.10;100.00;99950.97;4991545;28;20082;-28
2022/05/24 00:30:34;;;;;;;10.45;5.05;;;;;;;13.09;100.00;99949.34;4992242;28;20133;-27
2022/05/24 00:33:05;;;;;;;9.07;3.85;;;;;;;13.09;100.00;99952.97;4988255;28;20520;-27
2022/05/24 00:35:34;;;;;;;8.38;3.55;;;;;;;13.08;100.00;99956.09;4991482;28;20058;-27
2022/05/24 00:38:02;;;;;;;6.20;3.72;;;;;;;13.07;100.00;99965.66;4992194;28;20049;-27
2022/05/24 00:40:39;;;;;;;9.40;4.03;;;;;;;13.07;100.00;99955.28;4992116;28;20049;-28
2022/05/24 00:43:14;;;;;;;8.50;5.10;;;;;;;13.07;100.00;99962.84;4992126;28;20042;-27
2022/05/24 00:45:47;;;;;;;6.68;4.25;;;;;;;13.07;100.00;99958.06;4991687;28;20054;-29
2022/05/24 00:48:22;;;;;;;8.40;5.78;;;;;;;13.09;100.00;99961.34;4991414;28;20100;-26
2022/05/24 00:50:52;;;;;;;10.63;3.88;;;;;;;13.06;100.00;99959.22;4992407;28;20050;-28
2022/05/24 00:53:23;;;;;;;8.77;3.42;;;;;;;13.11;100.00;99947.84;4991926;28;20046;-27
2022/05/24 00:55:58;;;;;;;7.57;3.28;;;;;;;13.15;100.00;99945.22;4991513;28;20042;-27
2022/05/24 00:58:38;;;;;;;6.13;2.67;;;;;;;13.13;100.00;99946.69;4992029;28;20073;-28
2022/05/24 01:01:29;;;;;;;5.18;2.05;;;;;;;13.04;100.00;99955.13;4991798;28;20403;-28
2022/05/24 01:03:56;;;;;;;5.93;2.65;;;;;;;12.98;100.00;99945.28;4990779;28;20054;-28
2022/05/24 01:06:26;;;;;;;6.38;2.45;;;;;;;13.01;100.00;99936.19;4991356;28;20061;-27
2022/05/24 01:08:57;;;;;;;7.68;2.60;;;;;;;13.00;100.00;99929.75;4990894;28;20078;-27
2022/05/24 01:11:26;;;;;;;6.18;2.80;;;;;;;13.00;100.00;99935.38;4991714;28;20050;-27
2022/05/24 01:13:55;;;;;;;9.68;2.47;;;;;;;13.01;100.00;99919.38;4991503;28;20050;-28
2022/05/24 01:16:23;;;;;;;7.45;3.30;;;;;;;13.04;100.00;99927.13;4990638;28;20093;-27
2022/05/24 01:18:51;;;;;;;7.38;2.90;;;;;;;13.08;100.00;99936.50;4991186;28;20465;-28
2022/05/24 01:21:20;;;;;;;9.38;3.63;;;;;;;13.08;100.00;99930.88;4991485;28;20053;-27
2022/05/24 01:24:02;;;;;;;9.35;3.75;;;;;;;13.07;100.00;99941.28;4990478;28;20522;-27
2022/05/24 01:26:47;;;;;;;9.82;3.92;;;;;;;13.06;100.00;99952.81;4991432;28;20046;-33
2022/05/24 01:29:14;;;;;;;8.20;3.72;;;;;;;13.02;100.00;99943.44;4990482;28;20526;-33
2022/05/24 01:37:17;;;;;;;8.32;3.10;;;;;;;12.98;100.00;99932.13;4990442;28;20049;-26
2022/05/24 01:39:48;;;;;;;6.22;2.80;;;;;;;12.98;100.00;99920.91;4991117;28;20053;-27
2022/05/24 01:42:18;;;;;;;7.95;3.10;;;;;;;12.99;100.00;99914.13;4991543;28;20047;-27
2022/05/24 01:44:51;;;;;;;7.32;2.90;;;;;;;13.00;100.00;99915.75;4990428;28;20038;-27
2022/05/24 01:47:20;;;;;;;7.80;2.83;;;;;;;13.00;100.00;99923.34;4991196;28;20130;-27
2022/05/24 01:49:51;;;;;;;9.52;3.30;;;;;;;12.99;100.00;99918.94;4991070;28;20065;-27
2022/05/24 01:52:24;;;;;;;6.15;2.92;;;;;;;13.00;100.00;99926.13;4990191;28;20057;-28
2022/05/24 01:54:55;;;;;;;6.88;3.05;;;;;;;12.99;100.00;99922.53;4991232;28;20046;-27
2022/05/24 01:57:30;;;;;;;9.02;3.63;;;;;;;13.00;100.00;99924.16;4991203;28;20054;-29
2022/05/24 02:00:00;;;;;;;6.38;2.95;;;;;;;12.99;100.00;99921.72;4990392;28;20054;-26
2022/05/24 02:02:28;;;;;;;9.02;3.05;;;;;;;12.99;100.00;99916.91;4990860;28;20065;-27
2022/05/24 02:04:56;;;;;;;6.43;3.03;;;;;;;13.01;100.00;99919.38;4990663;28;20042;-27
2022/05/24 02:07:26;;;;;;;7.53;3.10;;;;;;;13.02;100.00;99923.81;4990437;28;20104;-27
2022/05/24 02:09:57;;;;;;;7.18;3.50;;;;;;;13.03;100.00;99928.28;4991069;28;20523;-25
2022/05/24 02:12:31;;;;;;;7.05;3.20;;;;;;;13.04;100.00;99929.91;4990149;28;20054;-26
2022/05/24 02:15:02;;;;;;;7.95;3.13;;;;;;;13.03;100.00;99929.09;4990816;28;20488;-26
2022/05/24 02:17:35;;;;;;;10.15;4.05;;;;;;;13.03;100.00;99931.06;4991150;28;20059;-26
2022/05/24 02:20:05;;;;;;;6.70;3.38;;;;;;;13.01;100.00;99937.00;4990212;28;20045;-26
2022/05/24 02:22:33;;;;;;;9.38;3.92;;;;;;;12.98;100.00;99931.28;4990681;28;20061;-26
2022/05/24 02:25:07;;;;;;;6.45;3.20;;;;;;;12.97;100.00;99940.84;4986938;28;20077;-27
2022/05/24 02:27:43;;;;;;;8.20;3.70;;;;;;;12.94;100.00;99949.91;4986597;28;20058;-26
2022/05/24 02:30:12;;;;;;;8.82;3.70;;;;;;;12.92;100.00;99964.25;4990780;28;20057;-29
2022/05/24 02:32:39;;;;;;;7.47;3.58;;;;;;;12.93;100.00;99962.28;4991033;28;20046;-27
2022/05/24 02:35:08;;;;;;;5.57;3.20;;;;;;;12.96;100.00;99967.22;4989922;28;20419;-27
2022/05/24 02:37:36;;;;;;;9.77;3.47;;;;;;;12.98;100.00;99962.09;4990674;28;20042;-27
2022/05/24 02:42:52;;;;;;;8.38;3.22;;;;;;;12.97;100.00;99961.28;4994519;28;20145;-28
2022/05/24 02:45:20;;;;;;;9.60;3.50;;;;;;;12.98;100.00;99957.31;4994222;28;20050;-27
2022/05/24 02:47:49;;;;;;;8.65;4.07;;;;;;;13.00;100.00;99959.75;4993395;28;20423;-27
2022/05/24 02:50:17;;;;;;;7.80;3.65;;;;;;;13.00;100.00;99963.38;4994135;28;20054;-27
2022/05/24 02:52:45;;;;;;;7.60;4.07;;;;;;;13.00;100.00;99956.94;4993900;28;20057;-27
2022/05/24 02:55:13;;;;;;;8.32;4.15;;;;;;;13.02;100.00;99949.03;4993371;28;20480;-27
2022/05/24 02:57:42;;;;;;;7.25;3.72;;;;;;;13.06;100.00;99941.59;4994417;28;20054;-28
2022/05/24 03:00:15;;;;;;;12.10;3.92;;;;;;;13.08;100.00;99937.31;4993987;28;20035;-27
2022/05/24 03:02:43;;;;;;;11.95;3.65;;;;;;;13.08;100.00;99939.28;4993261;28;20046;-27
2022/05/24 03:05:12;;;;;;;9.95;3.80;;;;;;;13.05;100.00;99940.78;4993672;28;20708;-27
2022/05/24 03:10:27;;;;;;;9.20;3.50;;;;;;;13.04;100.00;99929.91;4993147;28;20045;-27
2022/05/24 03:15:44;;;;;;;15.60;4.00;;;;;;;13.10;100.00;99931.38;4992396;28;20351;-28
2022/05/24 03:18:14;;;;;;;12.40;3.65;;;;;;;13.10;100.00;99935.00;4992291;28;20149;-28
2022/05/24 03:20:43;;;;;;;15.48;3.85;;;;;;;13.11;100.00;99935.81;4992000;28;20492;-28
2022/05/24 03:23:12;;;;;;;10.00;3.63;;;;;;;13.13;100.00;99927.91;4992020;28;20070;-28
2022/05/24 03:25:40;;;;;;;9.57;3.45;;;;;;;13.13;100.00;99933.50;4992845;28;20153;-32
2022/05/24 03:28:10;;;;;;;12.13;4.00;;;;;;;13.13;100.00;99936.31;4992652;28;20451;-31
2022/05/24 03:30:40;;;;;;;12.52;4.30;;;;;;;13.14;100.00;99934.31;4991932;28;20058;-31
2022/05/24 03:33:09;;;;;;;15.43;3.90;;;;;;;13.13;100.00;99933.50;4992969;28;20054;-28
2022/05/24 03:35:37;;;;;;;18.90;4.10;;;;;;;13.13;100.00;99938.28;4993335;28;20061;-28
2022/05/24 03:38:05;;;;;;;20.33;3.78;;;;;;;13.13;100.00;99939.09;4992222;28;20034;-29
2022/05/24 03:40:34;;;;;;;19.10;4.22;;;;;;;13.16;100.00;99941.25;4992763;28;20069;-28
2022/05/24 03:43:03;;;;;;;18.95;3.33;;;;;;;13.17;100.00;99942.91;4992647;28;20042;-28
2022/05/24 03:45:31;;;;;;;13.55;3.30;;;;;;;13.17;100.00;99945.72;4991772;28;20049;-28
2022/05/24 03:47:59;;;;;;;13.00;3.00;;;;;;;13.18;100.00;99941.75;4992812;28;20054;-30
2022/05/24 03:50:28;;;;;;;10.43;2.45;;;;;;;13.20;100.00;99936.59;4992651;28;20137;-30
2022/05/24 03:52:56;;;;;;;11.07;2.65;;;;;;;13.19;100.00;99936.97;4991267;28;20050;-29
2022/05/24 03:55:23;;;;;;;17.35;2.40;;;;;;;13.17;100.00;99944.88;4992642;28;20050;-28
2022/05/24 03:58:02;;;;;;;13.27;2.65;;;;;;;13.15;100.00;99952.78;4991918;28;20058;-28
2022/05/24 04:00:32;;;;;;;13.80;2.45;;;;;;;13.13;100.00;99955.91;4992573;28;20074;-28
2022/05/24 04:03:01;;;;;;;10.93;1.85;;;;;;;13.10;100.00;99956.56;4992536;28;20050;-28
2022/05/24 04:05:31;;;;;;;8.18;2.05;;;;;;;13.13;100.00;99963.50;4991429;28;20408;-27
2022/05/24 04:08:00;;;;;;;7.53;1.58;;;;;;;13.05;100.00;99956.75;4992586;28;20054;-27
2022/05/24 04:10:28;;;;;;;7.15;1.92;;;;;;;13.00;100.00;99962.56;4992041;28;20059;-28
2022/05/24 04:12:56;;;;;;;8.75;1.75;;;;;;;12.99;100.00;99966.53;4991452;28;20061;-27
2022/05/24 04:15:24;;;;;;;6.32;2.13;;;;;;;12.94;100.00;99984.34;4992529;28;20061;-26
2022/05/24 04:17:52;;;;;;;9.32;1.92;;;;;;;12.91;100.00;99975.78;4991885;28;20050;-26
2022/05/24 04:20:22;;;;;;;11.27;2.00;;;;;;;12.93;100.00;99976.28;4991321;28;20496;-26
2022/05/24 04:22:53;;;;;;;8.45;1.80;;;;;;;12.89;100.00;99987.31;4992536;28;20057;-26
2022/05/24 04:25:21;;;;;;;10.70;1.80;;;;;;;12.84;100.00;99987.50;4992395;28;20046;-25
2022/05/24 04:27:49;;;;;;;7.32;1.50;;;;;;;12.80;100.00;99991.31;4991510;28;20042;-26
2022/05/24 04:30:21;;;;;;;8.00;1.67;;;;;;;12.73;100.00;99989.88;4992263;28;20173;-26
2022/05/24 04:32:51;;;;;;;7.00;1.33;;;;;;;12.69;100.00;99997.28;4991608;28;20050;-26
2022/05/24 04:35:18;;;;;;;5.03;1.08;;;;;;;12.65;100.00;100010.28;4992239;28;20049;-26
2022/05/24 04:37:46;;;;;;;4.85;1.20;;;;;;;12.62;100.00;100016.56;4992289;28;20047;-26
2022/05/24 04:40:19;;;;;;;5.47;1.40;;;;;;;12.60;100.00;100016.06;4989957;28;20038;-27
2022/05/24 04:42:46;;;;;;;6.70;1.25;;;;;;;12.59;100.00;100016.44;4988923;28;20053;-27
2022/05/24 04:45:16;;;;;;;7.13;1.38;;;;;;;12.62;100.00;100010.97;4990785;28;20046;-27
2022/05/24 04:47:44;;;;;;;6.63;1.45;;;;;;;12.59;100.00;100017.22;4980371;28;20050;-27
2022/05/24 04:50:13;;;;;;;7.95;1.63;;;;;;;12.63;100.00;100014.56;4990718;28;20514;-27
2022/05/24 04:52:42;;;;;;;4.75;1.40;;;;;;;12.65;100.00;100007.50;4990977;28;20491;-28
2022/05/24 04:55:14;;;;;;;7.50;1.75;;;;;;;12.72;100.00;100007.00;4989970;28;20050;-26
2022/05/24 04:57:44;;;;;;;7.68;1.60;;;;;;;12.75;100.00;100007.16;4990704;28;20133;-26
2022/05/24 05:00:14;;;;;;;9.45;1.73;;;;;;;12.78;100.00;100002.88;4987358;28;20050;-26
2022/05/24 05:02:43;;;;;;;8.80;2.53;;;;;;;12.81;100.00;100009.75;4990045;28;20070;-29
2022/05/24 05:05:11;;;;;;;9.25;2.83;;;;;;;12.81;100.00;100013.38;4990772;28;20070;-27
2022/05/24 05:07:39;;;;;;;8.48;2.67;;;;;;;12.84;100.00;100009.06;4990450;28;20085;-27
2022/05/24 05:10:08;;;;;;;7.68;2.22;;;;;;;12.84;100.00;100006.28;4989790;28;20077;-28
2022/05/24 05:12:36;;;;;;;7.72;2.55;;;;;;;12.84;100.00;99998.69;4990746;28;20061;-28
2022/05/24 05:15:07;;;;;;;7.85;2.20;;;;;;;12.87;100.00;100003.63;4989731;28;20134;-27
2022/05/24 05:17:35;;;;;;;8.88;2.15;;;;;;;12.88;100.00;99993.25;4990313;28;20054;-27
2022/05/24 05:20:03;;;;;;;12.02;2.58;;;;;;;12.91;100.00;100004.63;4988936;28;20061;-27
2022/05/24 05:22:31;;;;;;;7.15;2.40;;;;;;;12.89;100.00;99992.09;4989913;28;20054;-27
2022/05/24 05:24:59;;;;;;;7.20;2.78;;;;;;;12.94;100.00;99997.53;4990392;28;20046;-30
2022/05/24 05:27:27;;;;;;;11.80;3.22;;;;;;;12.96;100.00;100001.63;4990422;28;20046;-29
2022/05/24 05:32:45;;;;;;;8.25;3.28;;;;;;;12.97;100.00;100000.47;4990241;28;20039;-23
2022/05/24 05:35:13;;;;;;;9.20;3.88;;;;;;;13.00;100.00;100010.16;4989604;28;20528;-27
2022/05/24 05:37:42;;;;;;;7.47;3.30;;;;;;;13.03;100.00;100015.91;4988366;28;20058;-27
2022/05/24 05:40:11;;;;;;;10.45;3.70;;;;;;;13.06;100.00;100011.63;4990049;28;20541;-29
2022/05/24 05:42:39;;;;;;;6.90;3.10;;;;;;;13.08;100.00;100031.72;4991124;28;20046;-27
2022/05/24 05:45:10;;;;;;;7.47;2.95;;;;;;;13.08;100.00;100028.91;4990365;28;20073;-27
2022/05/24 05:47:38;;;;;;;5.55;2.80;;;;;;;13.09;100.00;100041.75;4991014;28;20146;-27
2022/05/24 05:50:09;;;;;;;7.88;2.58;;;;;;;13.09;100.00;100055.78;4990724;28;20525;-28
2022/05/24 05:52:36;;;;;;;6.72;2.40;;;;;;;13.09;100.00;100048.19;4991061;28;20050;-28
2022/05/24 05:55:05;;;;;;;6.32;2.15;;;;;;;13.13;100.00;100047.53;4991161;28;20047;-28
2022/05/24 05:57:38;;;;;;;7.10;2.30;;;;;;;13.17;100.00;100057.75;4980326;28;20045;-27
2022/05/24 06:00:08;;;;;;;5.65;2.00;;;;;;;13.22;100.00;100054.75;4980110;28;20051;-27
2022/05/24 06:02:43;;;;;;;6.65;2.50;;;;;;;13.24;100.00;100062.81;4980219;28;20061;-28
2022/05/24 06:05:12;;;;;;;7.07;3.20;;;;;;;13.28;100.00;100067.41;4990161;28;20085;-29
2022/05/24 06:07:40;;;;;;;7.15;2.40;;;;;;;13.32;100.00;100076.81;4990634;28;20066;-28
2022/05/24 06:10:11;;;;;;;6.78;2.78;;;;;;;13.36;100.00;100086.19;4990826;28;20496;-27
2022/05/24 06:12:39;;;;;;;8.55;2.58;;;;;;;13.34;100.00;100090.47;4987093;28;20054;-27
2022/05/24 06:15:08;;;;;;;5.13;2.03;;;;;;;13.31;100.00;100091.97;4992843;28;20046;-28
2022/05/24 06:17:43;;;;;;;5.47;2.17;;;;;;;13.30;100.00;100093.13;4994578;28;20074;-28
2022/05/24 06:20:16;;;;;;;6.35;2.40;;;;;;;13.28;100.00;100098.25;4993529;28;20496;-27
2022/05/24 06:22:44;;;;;;;6.88;2.38;;;;;;;13.28;100.00;100111.44;4994495;28;20042;-27
2022/05/24 06:25:16;;;;;;;6.43;2.25;;;;;;;13.26;100.00;100114.56;4994325;28;20046;-28
2022/05/24 06:27:44;;;;;;;5.18;2.40;;;;;;;13.20;100.00;100106.66;4994260;28;20054;-29
2022/05/24 06:30:13;;;;;;;5.10;2.30;;;;;;;13.15;100.00;100104.03;4994568;28;20057;-28
2022/05/24 06:32:40;;;;;;;4.60;2.10;;;;;;;13.14;100.00;100108.00;4993778;28;20502;-27
2022/05/24 06:35:10;;;;;;;7.25;2.42;;;;;;;13.15;100.00;100099.28;4990963;28;20077;-31
2022/05/24 06:37:40;;;;;;;5.50;2.10;;;;;;;13.18;100.00;100098.63;4994748;28;20046;-27
2022/05/24 06:40:09;;;;;;;6.10;2.42;;;;;;;13.17;100.00;100096.97;4993707;28;20136;-28
2022/05/24 06:42:37;;;;;;;4.43;2.03;;;;;;;13.18;100.00;100106.22;4994529;28;20062;-28
2022/05/24 06:45:06;;;;;;;5.78;2.30;;;;;;;13.19;100.00;100111.44;4994400;28;20042;-27
2022/05/24 06:47:34;;;;;;;6.00;2.42;;;;;;;13.18;100.00;100112.63;4993373;28;20050;-27
2022/05/24 06:50:01;;;;;;;6.75;2.08;;;;;;;13.19;100.00;100110.66;4993784;28;20054;-28
2022/05/24 06:52:30;;;;;;;3.47;2.03;;;;;;;13.25;100.00;100112.91;4994062;28;20094;-28
2022/05/24 06:55:00;;;;;;;4.75;2.08;;;;;;;13.43;100.00;100117.28;4993381;28;20049;-29
2022/05/24 06:57:28;;;;;;;5.65;2.20;;;;;;;13.79;100.00;100115.94;4994204;28;20055;-28
2022/05/24 07:02:41;;;;;;;4.25;2.08;;;;;;;14.28;100.00;100117.09;4993018;28;20053;-28
2022/05/24 07:05:12;;;;;;;5.40;1.70;;;;;;;14.47;100.00;100117.47;4993733;28;20054;-30
2022/05/24 07:07:41;;;;;;;4.60;1.90;;;;;;;14.64;100.00;100115.66;4993174;28;20050;-28
2022/05/24 07:10:15;;;;;;;4.60;1.83;;;;;;;14.93;100.00;100117.53;4993992;28;20135;-28
2022/05/24 07:12:45;;;;;;;6.15;2.33;;;;;;;14.91;100.00;100122.69;4993832;28;20050;-29
2022/05/24 07:15:13;;;;;;;3.60;1.92;;;;;;;14.82;100.00;100128.38;4992898;28;20042;-28
2022/05/24 07:17:41;;;;;;;4.95;1.73;;;;;;;14.71;100.00;100139.22;4982885;28;20058;-32
2022/05/24 07:20:10;;;;;;;4.75;1.90;;;;;;;14.52;100.00;100133.28;4993745;28;20050;-29
2022/05/24 07:22:39;;;;;;;6.28;2.10;;;;;;;14.35;100.00;100137.03;4992642;28;20057;-31
2022/05/24 07:25:08;;;;;;;5.22;1.90;;;;;;;14.21;100.00;100141.25;4993576;28;20050;-28
2022/05/24 07:27:37;;;;;;;5.03;1.88;;;;;;;14.09;100.00;100139.19;4988984;28;20042;-28
2022/05/24 07:30:07;;;;;;;6.93;2.15;;;;;;;14.00;100.00;100144.03;4992281;28;20042;-28
2022/05/24 07:32:34;;;;;;;4.18;1.75;;;;;;;13.88;100.00;100147.56;4992545;28;20050;-28
2022/05/24 07:35:03;;;;;;;6.00;2.17;;;;;;;13.82;100.00;100148.09;4993370;28;20420;-28
2022/05/24 07:37:30;;;;;;;6.07;2.20;;;;;;;13.91;100.00;100149.72;4992798;28;20129;-27
2022/05/24 07:48:12;;;;;;;5.68;2.00;;;;;;;14.86;100.00;100162.22;4992985;28;20543;-28
2022/05/24 07:50:40;;;;;;;5.95;2.10;;;;;;;14.90;100.00;100166.00;4992184;28;20508;-28
2022/05/24 07:53:09;;;;;;;6.93;2.42;;;;;;;14.82;100.00;100162.91;4993197;28;20447;-28
2022/05/24 07:55:36;;;;;;;5.00;2.40;;;;;;;14.77;100.00;100156.69;4992968;28;20042;-27
2022/05/24 07:58:06;;;;;;;6.10;2.47;;;;;;;14.73;100.00;100165.00;4992250;28;20058;-28
2022/05/24 08:00:35;;;;;;;7.65;2.45;;;;;;;14.63;100.00;100171.00;4993261;28;20050;-28
2022/05/24 08:03:02;;;;;;;7.68;2.38;;;;;;;14.57;100.00;100172.41;4988786;28;20073;-28
2022/05/24 08:05:32;;;;;;;4.80;2.40;;;;;;;14.58;100.00;100174.03;4992120;28;20046;-28
2022/05/24 08:08:00;;;;;;;4.90;2.70;;;;;;;14.52;100.00;100181.03;4992828;28;20407;-28
2022/05/24 08:10:29;;;;;;;7.05;3.22;;;;;;;14.79;100.00;100180.44;4992889;28;20125;-28
2022/05/24 08:12:57;;;;;;;8.68;2.85;;;;;;;15.16;100.00;100177.81;4990511;28;20046;-29
2022/05/24 08:15:29;;;;;;;6.45;2.63;;;;;;;15.42;100.00;100186.75;4992426;28;20051;-28
2022/05/24 08:17:57;;;;;;;;;;;;;;;15.61;100.00;100196.66;4992433;28;20042;-28
2022/05/24 08:20:25;;;;;;;5.55;2.88;;;;;;;15.78;100.00;100185.22;4992568;28;19922;-30
2022/05/24 08:22:53;;;;;;;6.82;2.75;;;;;;;15.84;100.00;100187.41;4992535;28;20133;-29
2022/05/24 08:25:21;;;;;;;6.28;2.60;;;;;;;15.73;100.00;100191.06;4991660;28;20073;-30
2022/05/24 08:27:48;;;;;;;6.20;2.70;;;;;;;15.78;100.00;100188.03;4992195;28;20050;-29
2022/05/24 08:30:18;;;;;;;7.07;2.45;;;;;;;15.71;100.00;100191.41;4992624;28;20482;-30
2022/05/24 08:32:48;;;;;;;6.78;2.17;;;;;;;15.67;100.00;100198.91;4981404;28;20073;-28
2022/05/24 08:35:18;;;;;;;5.32;2.00;;;;;;;15.55;100.00;100196.06;4981728;28;20262;-27
2022/05/24 08:37:47;;;;;;;4.28;1.50;;;;;;;15.46;100.00;100204.56;4991930;28;20057;-27
2022/05/24 08:40:18;;;;;;;6.60;1.33;;;;;;;15.59;100.00;100208.25;4991320;28;20065;-27
2022/05/24 08:43:12;;;;;;;5.60;1.60;;;;;;;15.75;100.00;100208.41;4993046;28;20419;-27
2022/05/24 08:48:40;;;;;;;6.00;1.80;;;;;;;15.73;100.00;100224.81;4983503;28;20061;-27
2022/05/24 08:51:16;;;;;;;4.80;1.60;;;;;;;15.72;100.00;100223.19;4991941;28;20042;-27
2022/05/24 08:53:49;;;;;;;4.63;1.75;;;;;;;15.84;100.00;100226.81;4991244;28;20043;-28
2022/05/24 08:56:20;;;;;;;9.75;1.70;;;;;;;16.01;100.00;100225.75;4990596;28;20134;-33
2022/05/24 08:58:51;;;;;;;4.28;0.82;;;;;;;16.33;100.00;100240.09;4991850;28;20046;-28
2022/05/24 09:01:25;;;;;;;5.18;0.70;;;;;;;17.06;100.00;100239.94;4989636;28;20089;-29
2022/05/24 09:03:54;;;;;;;3.70;0.60;;;;;;;17.69;100.00;100240.16;4992065;28;20043;-28
2022/05/24 09:06:35;;;;;;;1.20;0.30;;;;;;;18.05;100.00;100244.72;4991852;28;20057;-31
2022/05/24 09:09:12;;;;;;;1.60;0.30;;;;;;;18.20;100.00;100258.81;4981063;28;20392;-31
2022/05/24 09:11:51;;;;;;;2.67;0.40;;;;;;;18.38;100.00;100264.94;4991711;28;20069;-34
2022/05/24 09:14:30;;;;;;;7.07;0.60;;;;;;;18.93;100.00;100269.47;4990817;28;20038;-28
2022/05/24 09:17:05;;;;;;;2.03;0.40;;;;;;;19.50;98.88;100270.72;4991514;28;20054;-30
2022/05/24 09:19:37;;;;;;;2.47;0.40;;;;;;;20.07;95.76;100276.63;4990033;28;20511;-32
2022/05/24 09:22:06;;;;;;;3.10;0.60;;;;;;;20.38;91.89;100276.41;4990646;28;20057;-32
2022/05/24 09:24:43;;;;;;;5.03;0.77;;;;;;;20.43;90.14;100284.56;4991571;28;20046;-33
2022/05/24 09:27:15;;;;;;;2.75;0.50;;;;;;;20.53;88.43;100294.44;4991747;28;20447;-31
2022/05/24 09:29:57;;;;;;;3.03;0.70;;;;;;;20.52;83.48;100299.31;4990477;28;20514;-31
2022/05/24 09:32:36;;;;;;;3.17;0.95;;;;;;;20.07;82.97;100302.94;4981745;28;20054;-28
2022/05/24 09:35:19;;;;;;;3.80;0.60;;;;;;;19.76;85.11;100318.13;4991144;28;20046;-32
2022/05/24 09:38:03;;;;;;;3.95;0.90;;;;;;;19.94;86.41;100305.16;4991209;28;20049;-30
2022/05/24 09:40:43;;;;;;;3.85;0.70;;;;;;;19.93;83.97;100319.69;4991224;28;20038;-40
2022/05/24 09:43:26;;;;;;;4.68;0.80;;;;;;;19.92;81.94;100326.53;4990392;28;20031;-29
2022/05/24 09:45:58;;;;;;;6.35;0.90;;;;;;;19.77;83.59;100333.13;4991151;28;20043;-30
2022/05/24 09:48:30;;;;;;;5.05;1.20;;;;;;;19.54;84.88;100338.72;4990929;28;20046;-29
2022/05/24 09:51:03;;;;;;;4.55;0.82;;;;;;;19.70;86.39;100347.13;4990209;28;20083;-28
2022/05/24 09:53:33;;;;;;;5.15;1.00;;;;;;;19.72;83.16;100351.22;4990896;28;20408;-28
2022/05/24 09:56:03;;;;;;;4.97;0.85;;;;;;;19.45;82.34;100358.69;4991347;28;20042;-31
2022/05/24 09:58:34;;;;;;;4.18;0.93;;;;;;;19.22;83.43;100366.25;4990354;28;20550;-29
2022/05/24 10:01:04;;;;;;;4.93;0.90;;;;;;;18.85;84.26;100363.78;4991286;28;20043;-28
2022/05/24 10:03:36;;;;;;;4.90;1.42;;;;;;;18.78;86.35;100380.59;4990201;28;20058;-31
2022/05/24 10:06:11;;;;;;;3.60;1.20;;;;;;;18.48;84.71;100379.38;4991626;28;20049;-29
2022/05/24 10:08:44;;;;;;;3.55;0.77;;;;;;;18.10;86.61;100377.16;4991028;28;20060;-33
2022/05/24 10:11:22;;;;;;;5.25;1.10;;;;;;;17.80;88.83;100380.34;4990029;28;20052;-32
2022/05/24 10:14:00;;;;;;;7.80;1.30;;;;;;;17.55;89.96;100385.25;4990891;28;20042;-32
2022/05/24 10:16:34;;;;;;;6.25;1.50;;;;;;;17.28;91.09;100385.22;4990683;28;20404;-28
2022/05/24 10:19:25;;;;;;;7.43;1.30;;;;;;;17.02;92.91;100399.69;4990459;28;20070;-32
2022/05/24 10:22:02;;;;;;;4.00;1.23;;;;;;;16.87;94.79;100404.06;4990857;28;20049;-32
2022/05/24 10:24:39;;;;;;;6.57;1.30;;;;;;;16.74;94.86;100408.88;4990444;28;20061;-28
2022/05/24 10:27:13;;;;;;;7.25;1.38;;;;;;;16.64;94.97;100416.97;4991007;28;20046;-30
2022/05/24 10:29:50;;;;;;;5.07;1.13;;;;;;;16.68;96.79;100415.91;4991034;28;20041;-28
2022/05/24 10:38:32;;;;;;;4.65;1.08;;;;;;;17.73;92.58;100453.53;4990784;28;20046;-29
2022/05/24 10:41:07;;;;;;;4.78;1.55;;;;;;;17.64;91.90;100454.81;4987748;28;20427;-35
2022/05/24 10:43:54;;;;;;;5.28;1.45;;;;;;;17.65;91.10;100462.16;4991159;28;20350;-29
2022/05/24 10:46:31;;;;;;;5.20;1.50;;;;;;;17.43;90.35;100469.91;4988390;28;20058;-28
2022/05/24 10:49:05;;;;;;;5.47;1.58;;;;;;;17.09;90.90;100462.78;4989304;28;20050;-27
2022/05/24 10:51:38;;;;;;;5.40;1.80;;;;;;;17.03;92.14;100466.19;4990587;28;20062;-32
2022/05/24 10:54:13;;;;;;;5.03;1.80;;;;;;;17.04;92.64;100465.00;4989594;28;20038;-27
2022/05/24 10:56:45;;;;;;;6.60;2.08;;;;;;;16.96;92.60;100475.25;4990647;28;20061;-27
2022/05/24 10:59:22;;;;;;;5.72;2.30;;;;;;;16.90;92.64;100475.81;4990423;28;20054;-28
2022/05/24 11:01:56;;;;;;;5.13;2.33;;;;;;;16.92;93.63;100473.47;4992894;28;20046;-36
2022/05/24 11:04:34;;;;;;;5.85;2.20;;;;;;;17.19;92.97;100478.38;4993806;28;20087;-29
2022/05/24 11:07:10;;;;;;;5.55;2.45;;;;;;;17.56;91.49;100490.47;4993058;28;20035;-28
2022/05/24 11:09:46;;;;;;;6.78;2.70;;;;;;;17.66;88.10;100486.34;4994131;28;20058;-30
2022/05/24 11:12:22;;;;;;;6.60;2.70;;;;;;;17.77;88.26;100493.19;4994173;28;20097;-30
2022/05/24 11:15:02;;;;;;;7.53;2.60;;;;;;;17.85;88.15;100495.84;4993190;28;20051;-29
2022/05/24 11:17:30;;;;;;;4.93;2.53;;;;;;;17.88;87.97;100489.47;4994007;28;20109;-29
2022/05/24 11:19:59;;;;;;;7.25;2.55;;;;;;;18.13;87.49;100489.41;4993758;28;20511;-35
2022/05/24 11:22:32;;;;;;;7.28;2.55;;;;;;;18.24;86.15;100497.00;4993025;28;20067;-35
2022/05/24 11:25:12;;;;;;;6.55;2.70;;;;;;;18.03;84.46;100502.00;4993476;28;20054;-32
2022/05/24 11:27:43;;;;;;;7.15;2.90;;;;;;;17.86;85.14;100505.13;4993912;28;20072;-35
2022/05/24 11:30:16;;;;;;;5.45;3.00;;;;;;;17.58;85.44;100507.88;4993378;28;20105;-27
2022/05/24 11:32:47;;;;;;;5.93;2.90;;;;;;;17.42;87.16;100516.22;4993330;28;20049;-31
2022/05/24 11:35:24;;;;;;;;;;;;;;;17.15;83.42;100512.13;4993023;28;20500;-28
2022/05/24 11:37:55;;;;;;;5.90;3.25;;;;;;;17.16;88.56;100510.97;4993595;28;19922;-31
2022/05/24 11:40:34;;;;;;;5.03;3.33;;;;;;;17.46;88.42;100521.97;4993419;28;20050;-28
2022/05/24 11:43:04;;;;;;;6.30;4.18;;;;;;;17.72;87.48;100530.94;4992543;28;20309;-30
2022/05/24 11:46:00;;;;;;;7.32;4.07;;;;;;;18.00;85.69;100532.97;4993200;28;20563;-34
2022/05/24 11:48:53;;;;;;;6.72;4.32;;;;;;;18.18;85.15;100532.34;4992280;28;20112;-28
2022/05/24 11:51:36;;;;;;;6.40;4.70;;;;;;;18.13;82.83;100543.06;4971962;28;20054;-34
2022/05/24 11:54:07;;;;;;;6.90;4.80;;;;;;;18.00;83.33;100536.59;4990163;28;20476;-32
2022/05/24 11:56:38;;;;;;;6.45;4.20;;;;;;;17.90;83.69;100543.59;4989403;28;20571;-27
2022/05/24 11:59:11;;;;;;;8.07;3.92;;;;;;;17.93;85.38;100549.69;4993024;28;20057;-31
2022/05/24 12:01:49;;;;;;;6.00;3.95;;;;;;;18.04;85.28;100553.66;4992735;28;20045;-30
2022/05/24 12:10:26;;;;;;;;;;;;;;;18.02;82.73;100562.50;4983498;28;20047;-28
2022/05/24 12:12:57;;;;;;;;;;;;;;;18.16;83.70;100579.88;4992499;28;20291;-35
2022/05/24 12:15:47;;;;;;;5.07;3.15;;;;;;;18.29;85.10;100568.53;4992917;28;19926;-30
2022/05/24 12:18:18;;;;;;;7.82;4.10;;;;;;;18.39;84.02;100568.00;4991776;28;20046;-29
2022/05/24 12:20:59;;;;;;;7.40;4.03;;;;;;;18.48;83.96;100569.53;4992578;28;20113;-31
2022/05/24 12:23:40;;;;;;;4.80;2.70;;;;;;;18.67;85.29;100583.00;4992406;28;20055;-29